createdAt,value
2023-01-09T00:04:19.489Z,7.00
2023-01-09T00:09:22.919Z,7.20
2023-01-09T00:14:24.700Z,7.10
2023-01-09T00:19:26.426Z,7.10
2023-01-09T00:24:28.102Z,7.10
2023-01-09T00:29:29.866Z,7.10
2023-01-09T00:34:31.626Z,7.10
2023-01-09T00:39:33.281Z,7.20
2023-01-09T00:44:46.056Z,7.20
2023-01-09T00:49:49.716Z,7.20
2023-01-09T00:54:51.540Z,7.40
2023-01-09T00:59:53.320Z,7.20
2023-01-09T01:05:13.532Z,7.10
2023-01-09T01:10:21.466Z,7.00
2023-01-09T01:15:23.285Z,6.90
2023-01-09T01:20:25.410Z,6.90
2023-01-09T01:25:28.282Z,6.90
2023-01-09T01:30:31.387Z,6.90
2023-01-09T01:35:33.234Z,7.00
2023-01-09T01:40:34.894Z,7.00
2023-01-09T01:45:36.597Z,7.10
2023-01-09T01:50:49.287Z,7.20
2023-01-09T01:55:51.001Z,7.20
2023-01-09T02:00:52.768Z,7.20
2023-01-09T02:05:55.007Z,7.20
2023-01-09T02:10:57.006Z,7.20
2023-01-09T02:16:17.996Z,7.20
2023-01-09T02:21:28.032Z,7.30
2023-01-09T02:26:35.525Z,7.30
2023-01-09T02:31:46.112Z,7.50
2023-01-09T02:37:09.005Z,7.60
2023-01-09T02:42:21.544Z,7.70
2023-01-09T02:47:23.644Z,7.70
2023-01-09T02:52:50.306Z,7.90
2023-01-09T02:58:06.835Z,8.00
2023-01-09T03:03:18.413Z,8.10
2023-01-09T03:08:28.252Z,8.20
2023-01-09T03:13:33.893Z,8.20
2023-01-09T03:18:37.511Z,8.20
2023-01-09T03:23:57.185Z,8.20
2023-01-09T03:28:59.479Z,8.20
2023-01-09T03:34:01.266Z,8.30
2023-01-09T03:39:03.114Z,8.20
2023-01-09T03:44:04.808Z,8.20
2023-01-09T03:49:07.030Z,8.20
2023-01-09T03:54:08.790Z,8.10
2023-01-09T03:59:10.515Z,8.10
2023-01-09T04:04:12.417Z,8.20
2023-01-09T04:09:14.552Z,8.10
2023-01-09T04:14:16.703Z,8.10
2023-01-09T04:19:18.499Z,8.10
2023-01-09T04:24:20.549Z,8.10
2023-01-09T04:29:22.261Z,8.00
2023-01-09T04:34:25.669Z,8.10
2023-01-09T04:39:27.748Z,8.20
2023-01-09T04:44:30.423Z,7.90
2023-01-09T04:49:32.151Z,8.00
2023-01-09T04:54:34.722Z,8.10
2023-01-09T04:59:37.589Z,8.10
2023-01-09T05:04:40.626Z,8.10
2023-01-09T05:09:43.556Z,8.10
2023-01-09T05:14:45.270Z,8.10
2023-01-09T05:19:46.979Z,8.10
2023-01-09T05:24:48.708Z,8.10
2023-01-09T05:29:53.463Z,8.00
2023-01-09T05:34:55.710Z,7.90
2023-01-09T05:39:57.415Z,8.00
2023-01-09T05:44:59.118Z,8.00
2023-01-09T05:50:03.449Z,7.90
2023-01-09T05:55:06.583Z,7.90
2023-01-09T06:00:09.213Z,7.90
2023-01-09T06:05:10.919Z,8.00
2023-01-09T06:10:13.758Z,8.10
2023-01-09T06:15:15.881Z,8.20
2023-01-09T06:20:17.970Z,8.30
2023-01-09T06:25:19.654Z,8.30
2023-01-09T06:30:21.979Z,8.40
2023-01-09T06:35:23.813Z,8.30
2023-01-09T06:40:25.650Z,8.40
2023-01-09T06:45:27.457Z,8.40
2023-01-09T06:50:29.162Z,8.40
2023-01-09T06:55:30.949Z,8.30
2023-01-09T07:00:32.730Z,8.40
2023-01-09T07:05:40.428Z,8.50
2023-01-09T07:10:43.284Z,8.50
2023-01-09T07:15:45.100Z,8.50
2023-01-09T07:20:47.161Z,8.50
2023-01-09T07:25:51.166Z,8.60
2023-01-09T07:30:53.298Z,8.60
2023-01-09T07:35:54.993Z,8.70
2023-01-09T07:40:56.792Z,8.70
2023-01-09T07:45:58.494Z,8.70
2023-01-09T07:51:00.269Z,8.70
2023-01-09T07:56:02.028Z,8.70
2023-01-09T08:01:03.880Z,8.80
2023-01-09T08:06:05.797Z,8.90
2023-01-09T08:11:07.524Z,9.00
2023-01-09T08:16:09.361Z,9.00
2023-01-09T08:21:11.420Z,9.10
2023-01-09T08:26:13.406Z,9.20
2023-01-09T08:31:15.540Z,9.30
2023-01-09T08:36:17.288Z,9.20
2023-01-09T08:41:37.894Z,9.20
2023-01-09T08:47:18.311Z,9.40
2023-01-09T08:52:20.146Z,9.40
2023-01-09T08:57:21.945Z,9.50
2023-01-09T09:02:23.751Z,9.50
2023-01-09T09:07:28.518Z,9.60
2023-01-09T09:12:50.204Z,9.80
2023-01-09T09:17:54.593Z,9.90
2023-01-09T09:22:56.346Z,10.10
2023-01-09T09:27:58.396Z,10.00
2023-01-09T09:33:02.301Z,9.90
2023-01-09T09:38:05.915Z,9.90
2023-01-09T09:43:38.592Z,10.00
2023-01-09T09:48:47.995Z,9.90
2023-01-09T09:54:23.881Z,9.70
2023-01-09T09:59:29.516Z,9.50
2023-01-09T10:04:33.667Z,9.40
2023-01-09T10:09:45.656Z,9.40
2023-01-09T10:14:47.650Z,9.50
2023-01-09T10:20:11.692Z,9.50
2023-01-09T10:25:50.987Z,9.80
2023-01-09T10:31:16.025Z,9.90
2023-01-09T10:36:42.903Z,9.80
2023-01-09T10:42:22.857Z,10.00
2023-01-09T10:47:29.891Z,10.00
2023-01-09T10:52:41.068Z,10.20
2023-01-09T10:57:45.239Z,10.20
2023-01-09T11:02:47.756Z,10.30
2023-01-09T11:08:11.433Z,10.20
2023-01-09T11:13:23.490Z,10.10
2023-01-09T11:18:25.771Z,9.90
2023-01-09T11:23:32.864Z,9.80
2023-01-09T11:28:34.634Z,9.60
2023-01-09T11:33:49.853Z,9.40
2023-01-09T11:38:53.686Z,9.40
2023-01-09T11:43:58.510Z,9.40
2023-01-09T11:49:02.234Z,9.20
2023-01-09T11:54:22.732Z,9.20
2023-01-09T11:59:30.448Z,9.40
2023-01-09T12:04:49.902Z,9.50
2023-01-09T12:09:55.026Z,9.60
2023-01-09T12:15:15.875Z,9.70
2023-01-09T12:20:36.113Z,9.80
2023-01-09T12:25:53.839Z,10.10
2023-01-09T12:31:16.833Z,10.20
2023-01-09T12:36:21.643Z,10.10
2023-01-09T12:41:42.842Z,10.10
2023-01-09T12:47:18.531Z,10.20
2023-01-09T12:52:36.265Z,10.30
2023-01-09T12:57:42.807Z,9.90
2023-01-09T13:03:12.855Z,9.70
2023-01-09T13:08:40.508Z,9.60
2023-01-09T13:13:57.818Z,9.60
2023-01-09T13:19:08.704Z,9.70
2023-01-09T13:24:53.708Z,9.50
2023-01-09T13:30:15.371Z,9.70
2023-01-09T13:35:17.161Z,10.10
2023-01-09T13:40:18.842Z,10.20
2023-01-09T13:45:25.739Z,10.20
2023-01-09T13:50:27.792Z,10.30
2023-01-09T13:55:35.750Z,10.10
2023-01-09T14:00:38.085Z,9.80
2023-01-09T14:05:39.793Z,9.60
2023-01-09T14:10:44.380Z,9.50
2023-01-09T14:15:49.599Z,9.50
2023-01-09T14:26:23.261Z,9.70
2023-01-09T14:31:32.880Z,9.60
2023-01-09T14:36:36.438Z,9.60
2023-01-09T14:42:05.744Z,9.80
2023-01-09T14:47:32.430Z,9.50
2023-01-09T14:53:08.274Z,9.20
2023-01-09T14:58:31.284Z,9.00
2023-01-09T15:03:52.434Z,8.80
2023-01-09T15:09:08.896Z,8.70
2023-01-09T15:14:26.515Z,8.60
2023-01-09T15:19:30.270Z,8.40
2023-01-09T15:24:34.438Z,8.30
2023-01-09T15:29:36.367Z,8.20
2023-01-09T15:34:39.418Z,8.00
2023-01-09T15:39:41.211Z,7.90
2023-01-09T15:44:49.668Z,7.80
2023-01-09T15:49:52.256Z,7.80
2023-01-09T15:54:54.397Z,8.00
2023-01-09T16:00:17.595Z,8.30
2023-01-09T16:05:20.152Z,8.40
2023-01-09T16:10:32.459Z,8.50
2023-01-09T16:15:35.122Z,8.60
2023-01-09T16:20:37.918Z,8.50
2023-01-09T16:25:39.679Z,8.50
2023-01-09T16:30:56.306Z,8.50
2023-01-09T16:35:59.128Z,8.50
2023-01-09T16:41:22.345Z,8.50
2023-01-09T16:46:24.319Z,8.50
2023-01-09T16:51:28.281Z,8.60
2023-01-09T16:56:30.681Z,8.50
2023-01-09T17:01:32.435Z,8.40
2023-01-09T17:06:34.220Z,8.50
2023-01-09T17:11:35.945Z,8.40
2023-01-09T17:16:37.776Z,8.30
2023-01-09T17:21:39.483Z,8.00
2023-01-09T17:27:02.355Z,7.90
2023-01-09T17:32:04.485Z,7.70
2023-01-09T17:37:06.359Z,7.60
2023-01-09T17:42:08.295Z,7.50
2023-01-09T17:47:16.525Z,7.40
2023-01-09T17:52:18.278Z,7.30
2023-01-09T17:57:20.716Z,7.20
2023-01-09T18:02:22.620Z,7.20
2023-01-09T18:07:24.376Z,7.20
2023-01-09T18:12:26.053Z,7.20
2023-01-09T18:17:27.783Z,7.20
2023-01-09T18:22:29.454Z,7.40
2023-01-09T18:27:31.278Z,7.50
2023-01-09T18:32:33.322Z,7.40
2023-01-09T18:37:36.868Z,7.30
2023-01-09T18:42:40.280Z,7.30
2023-01-09T18:47:43.145Z,7.30
2023-01-09T18:52:44.816Z,7.40
2023-01-09T18:57:46.515Z,7.30
2023-01-09T19:02:48.264Z,7.30
2023-01-09T19:07:50.138Z,7.40
2023-01-09T19:12:51.815Z,7.40
2023-01-09T19:17:53.479Z,7.30
2023-01-09T19:22:56.688Z,7.20
2023-01-09T19:28:00.279Z,7.00
2023-01-09T19:33:02.376Z,6.80
2023-01-09T19:38:04.425Z,6.80
2023-01-09T19:43:06.164Z,6.70
2023-01-09T19:48:07.850Z,6.70
2023-01-09T19:53:09.558Z,6.60
2023-01-09T19:58:11.248Z,6.60
2023-01-09T20:03:12.932Z,6.50
2023-01-09T20:08:17.240Z,6.50
2023-01-09T20:13:18.917Z,6.50
2023-01-09T20:18:21.475Z,6.40
2023-01-09T20:23:27.324Z,6.30
2023-01-09T20:28:29.069Z,6.30
2023-01-09T20:33:30.749Z,6.30
2023-01-09T20:38:33.391Z,6.30
2023-01-09T20:43:36.024Z,6.20
2023-01-09T20:48:37.862Z,6.20
2023-01-09T20:53:44.734Z,6.20
2023-01-09T20:58:46.561Z,6.20
2023-01-09T21:03:49.480Z,6.20
2023-01-09T21:08:53.089Z,6.10
2023-01-09T21:13:54.932Z,6.00
2023-01-09T21:18:56.718Z,6.00
2023-01-09T21:24:00.881Z,6.00
2023-01-09T21:29:08.148Z,6.00
2023-01-09T21:34:14.754Z,5.90
2023-01-09T21:39:17.956Z,5.90
2023-01-09T21:44:38.227Z,5.90
2023-01-09T21:49:42.670Z,6.00
2023-01-09T21:54:45.379Z,6.00
2023-01-09T21:59:48.113Z,5.90
2023-01-09T22:04:49.938Z,5.90
2023-01-09T22:09:51.710Z,6.00
2023-01-09T22:14:56.142Z,6.00
2023-01-09T22:19:57.999Z,6.10
2023-01-09T22:25:01.270Z,6.20
2023-01-09T22:30:03.141Z,6.30
2023-01-09T22:35:05.860Z,6.40
2023-01-09T22:40:12.730Z,6.40
2023-01-09T22:45:14.508Z,6.30
2023-01-09T22:50:17.369Z,6.00
2023-01-09T22:55:19.174Z,6.00
2023-01-09T23:00:21.107Z,5.90
2023-01-09T23:05:22.837Z,5.80
2023-01-09T23:10:24.636Z,5.70
2023-01-09T23:15:27.981Z,5.80
2023-01-09T23:20:31.052Z,5.70
2023-01-09T23:25:33.119Z,5.60
2023-01-09T23:30:35.084Z,5.60
2023-01-09T23:35:36.778Z,5.60
2023-01-09T23:40:41.576Z,5.50
2023-01-09T23:45:49.171Z,5.50
2023-01-09T23:50:53.573Z,5.40
2023-01-09T23:55:55.406Z,5.40
